Time;durP1;ratioP1;P1;durP2;ratioP2;P2;SDS_P1;SDS_P2;PMS_P1;PMS_P2;Temp;Humidity;BMP_temperature;BMP_pressure;BME280_temperature;BME280_humidity;BME280_pressure;Samples;Min_cycle;Max_cycle;Signal;HPM_P1;HPM_P2
2022/01/13 00:00:29;;;;;;;23.15;12.77;;;;;;;;;;5090507;28;20488;-68
2022/01/13 00:02:55;;;;;;;25.65;13.43;;;;;;;;;;5090467;28;20039;-70
2022/01/13 00:05:27;;;;;;;21.70;11.95;;;;;;;;;;5083344;28;20032;-62
2022/01/13 00:07:55;;;;;;;22.83;12.73;;;;;;;;;;5070124;28;20036;-74
2022/01/13 00:10:22;;;;;;;24.50;12.00;;;;;;;;;;5070116;28;20036;-65
2022/01/13 00:12:55;;;;;;;23.02;12.43;;;;;;;;;;5072990;28;20023;-69
2022/01/13 00:15:26;;;;;;;18.88;11.82;;;;;;;;;;5073804;28;20021;-72
2022/01/13 00:25:17;;;;;;;23.63;14.05;;;;;;;;;;5073512;28;20112;-75
2022/01/13 00:27:49;;;;;;;22.23;14.00;;;;;;;;;;5071834;28;20031;-75
2022/01/13 00:30:17;;;;;;;20.33;12.77;;;;;;;;;;5073730;28;20021;-77
2022/01/13 00:32:44;;;;;;;22.38;13.63;;;;;;;;;;5081080;28;20016;-78
2022/01/13 00:35:11;;;;;;;19.65;12.50;;;;;;;;;;5093727;28;20074;-68
2022/01/13 00:37:37;;;;;;;22.50;13.50;;;;;;;;;;5093678;28;20023;-70
2022/01/13 00:40:05;;;;;;;21.10;12.52;;;;;;;;;;5092805;28;20110;-76
2022/01/13 00:42:31;;;;;;;21.15;12.88;;;;;;;;;;5093662;28;20504;-79
2022/01/13 00:44:57;;;;;;;23.40;13.65;;;;;;;;;;5093613;28;20027;-76
2022/01/13 00:47:23;;;;;;;22.85;13.02;;;;;;;;;;5093238;28;20047;-63
2022/01/13 00:49:49;;;;;;;22.90;12.88;;;;;;;;;;5093215;28;20020;-72
2022/01/13 00:52:15;;;;;;;20.92;13.25;;;;;;;;;;5093494;28;20020;-71
2022/01/13 00:54:41;;;;;;;23.02;13.68;;;;;;;;;;5093414;28;20024;-70
2022/01/13 00:57:08;;;;;;;22.27;12.02;;;;;;;;;;5092472;28;20016;-60
2022/01/13 00:59:34;;;;;;;23.95;12.73;;;;;;;;;;5093050;28;20043;-80
2022/01/13 01:02:00;;;;;;;23.48;13.75;;;;;;;;;;5093210;28;20024;-67
2022/01/13 01:04:26;;;;;;;23.05;13.15;;;;;;;;;;5093060;28;20043;-65
2022/01/13 01:06:53;;;;;;;22.77;12.93;;;;;;;;;;5092984;28;20024;-67
2022/01/13 01:09:30;;;;;;;24.95;12.43;;;;;;;;;;5092990;28;20077;-64
2022/01/13 01:11:56;;;;;;;23.85;12.80;;;;;;;;;;5091665;28;20594;-65
2022/01/13 01:14:24;;;;;;;25.25;14.00;;;;;;;;;;5092115;28;20024;-66
2022/01/13 01:16:50;;;;;;;21.13;12.50;;;;;;;;;;5092749;28;20035;-67
2022/01/13 01:19:25;;;;;;;22.17;12.13;;;;;;;;;;5093218;28;20028;-64
2022/01/13 01:27:26;;;;;;;23.67;13.38;;;;;;;;;;5087376;28;20079;-68
2022/01/13 01:29:58;;;;;;;22.00;11.25;;;;;;;;;;5073882;28;20162;-73
2022/01/13 01:32:25;;;;;;;22.73;13.15;;;;;;;;;;5071727;28;20021;-78
2022/01/13 01:34:55;;;;;;;22.50;12.65;;;;;;;;;;5072971;28;20033;-85
2022/01/13 01:37:24;;;;;;;23.38;12.75;;;;;;;;;;5071522;28;20444;-70
2022/01/13 01:39:50;;;;;;;20.40;11.98;;;;;;;;;;5070754;28;20036;-63
2022/01/13 01:42:18;;;;;;;21.48;12.88;;;;;;;;;;5072233;28;20023;-60
2022/01/13 01:44:46;;;;;;;21.48;11.98;;;;;;;;;;5072222;28;20362;-66
2022/01/13 01:47:14;;;;;;;21.02;12.25;;;;;;;;;;5072566;28;20017;-70
2022/01/13 01:49:42;;;;;;;20.25;11.35;;;;;;;;;;5071995;28;20040;-61
2022/01/13 01:52:10;;;;;;;21.10;12.40;;;;;;;;;;5072113;28;20047;-65
2022/01/13 01:54:36;;;;;;;23.70;12.75;;;;;;;;;;5070829;28;20113;-63
2022/01/13 01:57:03;;;;;;;19.70;11.38;;;;;;;;;;5071688;28;20099;-60
2022/01/13 01:59:32;;;;;;;21.08;12.73;;;;;;;;;;5071611;28;20036;-62
2022/01/13 02:01:58;;;;;;;23.45;13.30;;;;;;;;;;5071688;28;20025;-61
2022/01/13 02:04:26;;;;;;;21.30;13.25;;;;;;;;;;5072240;28;20028;-64
2022/01/13 02:06:54;;;;;;;19.27;11.95;;;;;;;;;;5071589;28;20055;-62
2022/01/13 02:09:20;;;;;;;20.92;12.88;;;;;;;;;;5087940;28;20031;-60
2022/01/13 02:11:51;;;;;;;20.77;12.73;;;;;;;;;;5092015;28;20069;-64
2022/01/13 02:17:08;;;;;;;21.17;11.95;;;;;;;;;;5092019;28;20028;-70
2022/01/13 02:19:36;;;;;;;68.68;13.30;;;;;;;;;;5088032;28;20032;-59
2022/01/13 02:22:02;;;;;;;27.33;11.57;;;;;;;;;;5071793;28;20016;-62
2022/01/13 02:24:28;;;;;;;22.10;12.15;;;;;;;;;;5071444;28;20020;-63
2022/01/13 02:26:55;;;;;;;20.52;12.55;;;;;;;;;;5071197;28;20166;-72
2022/01/13 02:29:21;;;;;;;20.60;12.60;;;;;;;;;;5071555;28;20036;-61
2022/01/13 02:31:47;;;;;;;20.38;11.98;;;;;;;;;;5086956;28;20028;-62
2022/01/13 02:34:14;;;;;;;25.15;12.95;;;;;;;;;;5080348;28;20063;-67
2022/01/13 02:36:41;;;;;;;23.60;12.45;;;;;;;;;;5092062;28;20052;-77
2022/01/13 02:39:07;;;;;;;18.45;11.73;;;;;;;;;;5091690;28;20086;-73
2022/01/13 02:41:33;;;;;;;19.95;13.13;;;;;;;;;;5091419;28;20096;-60
2022/01/13 02:44:00;;;;;;;21.35;12.43;;;;;;;;;;5091343;28;20103;-61
2022/01/13 02:46:53;;;;;;;22.10;12.95;;;;;;;;;;5091473;28;20012;-66
2022/01/13 02:49:15;;;;;;;30.30;12.95;;;;;;;;;;5091208;28;20071;-72
2022/01/13 02:51:43;;;;;;;20.67;12.30;;;;;;;;;;5091401;28;20070;-73
2022/01/13 02:54:09;;;;;;;22.15;13.23;;;;;;;;;;5091431;28;20024;-61
2022/01/13 02:56:36;;;;;;;18.67;12.20;;;;;;;;;;5091470;28;20477;-70
2022/01/13 02:59:02;;;;;;;21.95;13.40;;;;;;;;;;5091373;28;20059;-68
2022/01/13 03:01:28;;;;;;;19.30;12.18;;;;;;;;;;5091313;28;20020;-61
2022/01/13 03:03:54;;;;;;;19.17;12.10;;;;;;;;;;5091256;28;20024;-67
2022/01/13 03:06:28;;;;;;;19.83;12.50;;;;;;;;;;5091393;28;20035;-60
2022/01/13 03:08:54;;;;;;;18.75;12.00;;;;;;;;;;5091556;28;20110;-66
2022/01/13 03:11:23;;;;;;;21.35;11.55;;;;;;;;;;5091318;28;20028;-60
2022/01/13 03:13:49;;;;;;;23.52;13.32;;;;;;;;;;5091460;28;20138;-64
2022/01/13 03:16:16;;;;;;;18.08;11.27;;;;;;;;;;5091151;28;20473;-64
2022/01/13 03:18:42;;;;;;;19.60;12.43;;;;;;;;;;5089708;28;20081;-71
2022/01/13 03:21:09;;;;;;;19.13;11.93;;;;;;;;;;5091226;28;20026;-61
2022/01/13 03:23:36;;;;;;;20.38;13.35;;;;;;;;;;5091069;28;20119;-64
2022/01/13 03:26:02;;;;;;;21.52;13.43;;;;;;;;;;5091102;28;20040;-69
2022/01/13 03:28:38;;;;;;;21.15;12.43;;;;;;;;;;5091246;28;20024;-63
2022/01/13 03:31:04;;;;;;;20.50;13.05;;;;;;;;;;5091336;28;20502;-63
2022/01/13 03:33:30;;;;;;;21.63;12.85;;;;;;;;;;5076678;28;20028;-60
2022/01/13 03:35:57;;;;;;;19.77;12.20;;;;;;;;;;5070972;28;20059;-65
2022/01/13 03:38:23;;;;;;;22.25;12.80;;;;;;;;;;5070691;28;20075;-63
2022/01/13 03:40:50;;;;;;;21.63;13.05;;;;;;;;;;5070832;28;20024;-61
2022/01/13 03:43:17;;;;;;;20.10;13.05;;;;;;;;;;5071225;28;20021;-63
2022/01/13 03:45:44;;;;;;;20.02;12.93;;;;;;;;;;5070758;28;20017;-62
2022/01/13 03:48:13;;;;;;;20.80;12.10;;;;;;;;;;5073991;28;20049;-75
2022/01/13 03:50:39;;;;;;;19.40;11.65;;;;;;;;;;5074689;28;20016;-60
2022/01/13 03:53:20;;;;;;;21.27;13.60;;;;;;;;;;5074528;28;20032;-61
2022/01/13 03:55:56;;;;;;;22.33;14.00;;;;;;;;;;5074568;28;20432;-66
2022/01/13 03:58:40;;;;;;;19.50;12.57;;;;;;;;;;5074241;28;20031;-67
2022/01/13 04:01:06;;;;;;;21.42;13.38;;;;;;;;;;5074254;28;20070;-65
2022/01/13 04:03:32;;;;;;;23.30;13.43;;;;;;;;;;5074866;28;20420;-84
2022/01/13 04:06:00;;;;;;;27.42;13.18;;;;;;;;;;5074618;28;20033;-65
2022/01/13 04:08:26;;;;;;;22.02;12.80;;;;;;;;;;5074538;28;20028;-69
2022/01/13 04:11:04;;;;;;;20.63;12.85;;;;;;;;;;5074549;28;20027;-82
2022/01/13 04:13:55;;;;;;;21.77;13.85;;;;;;;;;;5074389;28;20129;-68
2022/01/13 04:16:24;;;;;;;23.73;13.15;;;;;;;;;;5074473;28;20028;-74
2022/01/13 04:18:51;;;;;;;20.70;12.02;;;;;;;;;;5074593;28;20381;-71
2022/01/13 04:21:18;;;;;;;20.65;12.57;;;;;;;;;;5074610;28;20024;-71
2022/01/13 04:23:44;;;;;;;20.13;12.05;;;;;;;;;;5074569;28;20027;-79
2022/01/13 04:26:10;;;;;;;20.05;12.77;;;;;;;;;;5074124;28;20048;-68
2022/01/13 04:28:37;;;;;;;21.25;13.00;;;;;;;;;;5073774;28;20031;-70
2022/01/13 04:31:04;;;;;;;20.10;12.52;;;;;;;;;;5073741;28;20032;-64
2022/01/13 04:33:31;;;;;;;21.40;13.05;;;;;;;;;;5087772;28;20019;-69
2022/01/13 04:35:57;;;;;;;19.23;12.45;;;;;;;;;;5092495;28;20020;-68
2022/01/13 04:38:23;;;;;;;19.95;12.35;;;;;;;;;;5093737;28;20101;-70
2022/01/13 04:40:55;;;;;;;21.55;13.68;;;;;;;;;;5094020;28;20082;-70
2022/01/13 04:43:21;;;;;;;19.23;12.50;;;;;;;;;;5092370;28;20072;-67
2022/01/13 04:45:48;;;;;;;19.80;12.73;;;;;;;;;;5093771;28;20099;-70
2022/01/13 04:48:14;;;;;;;23.85;13.98;;;;;;;;;;5093868;28;20025;-62
2022/01/13 04:50:41;;;;;;;24.85;14.63;;;;;;;;;;5093697;28;20035;-73
2022/01/13 04:53:07;;;;;;;24.88;14.07;;;;;;;;;;5093573;28;20034;-70
2022/01/13 04:55:35;;;;;;;22.30;13.55;;;;;;;;;;5093726;28;20016;-62
2022/01/13 04:58:02;;;;;;;20.30;12.25;;;;;;;;;;5093250;28;20024;-68
2022/01/13 05:00:31;;;;;;;22.70;13.80;;;;;;;;;;5093406;28;20032;-69
2022/01/13 05:02:57;;;;;;;21.50;13.20;;;;;;;;;;5092042;28;20021;-74
2022/01/13 05:05:23;;;;;;;19.95;13.13;;;;;;;;;;5093353;28;20028;-80
2022/01/13 05:07:50;;;;;;;22.65;13.85;;;;;;;;;;5093375;28;20028;-77
2022/01/13 05:10:16;;;;;;;20.90;12.75;;;;;;;;;;5093420;28;20028;-66
2022/01/13 05:12:45;;;;;;;20.85;13.00;;;;;;;;;;5092987;28;20020;-75
2022/01/13 05:15:23;;;;;;;22.10;13.88;;;;;;;;;;5093485;28;20103;-75
2022/01/13 05:20:28;;;;;;;20.42;12.68;;;;;;;;;;5093217;28;20603;-76
2022/01/13 05:22:55;;;;;;;21.58;13.45;;;;;;;;;;5093046;28;20050;-72
2022/01/13 05:25:21;;;;;;;21.35;12.55;;;;;;;;;;5091694;28;20557;-68
2022/01/13 05:27:48;;;;;;;20.08;12.38;;;;;;;;;;5093010;28;20056;-69
2022/01/13 05:30:15;;;;;;;23.10;13.80;;;;;;;;;;5092986;28;20035;-59
2022/01/13 05:32:42;;;;;;;24.10;14.57;;;;;;;;;;5092908;28;20020;-61
2022/01/13 05:35:09;;;;;;;21.48;13.15;;;;;;;;;;5092746;28;20472;-70
2022/01/13 05:37:35;;;;;;;20.48;13.32;;;;;;;;;;5092806;28;20031;-61
2022/01/13 05:40:01;;;;;;;23.00;13.95;;;;;;;;;;5091534;28;20060;-68
2022/01/13 05:42:27;;;;;;;23.70;14.45;;;;;;;;;;5090894;28;20032;-67
2022/01/13 05:44:55;;;;;;;23.10;14.00;;;;;;;;;;5092653;28;20032;-62
2022/01/13 05:47:21;;;;;;;20.83;13.25;;;;;;;;;;5092597;28;20020;-65
2022/01/13 05:49:48;;;;;;;21.75;13.48;;;;;;;;;;5092518;28;20028;-73
2022/01/13 05:52:14;;;;;;;22.15;13.80;;;;;;;;;;5091049;28;20119;-67
2022/01/13 05:54:41;;;;;;;22.80;13.48;;;;;;;;;;5092230;28;20028;-62
2022/01/13 05:57:07;;;;;;;19.70;12.20;;;;;;;;;;5092435;28;20016;-69
2022/01/13 05:59:33;;;;;;;22.20;12.90;;;;;;;;;;5092191;28;20035;-72
2022/01/13 06:01:59;;;;;;;23.65;13.68;;;;;;;;;;5090868;28;20024;-73
2022/01/13 06:04:25;;;;;;;23.30;13.65;;;;;;;;;;5091995;28;20024;-77
2022/01/13 06:06:51;;;;;;;24.17;14.43;;;;;;;;;;5092224;28;20087;-68
2022/01/13 06:09:18;;;;;;;24.20;13.32;;;;;;;;;;5091437;28;20020;-68
2022/01/13 06:11:55;;;;;;;21.35;13.63;;;;;;;;;;5092154;28;20050;-64
2022/01/13 06:14:21;;;;;;;23.98;13.90;;;;;;;;;;5092227;28;20039;-64
2022/01/13 06:16:47;;;;;;;22.30;13.52;;;;;;;;;;5092341;28;20024;-76
2022/01/13 06:19:13;;;;;;;23.42;14.98;;;;;;;;;;5092073;28;20032;-65
2022/01/13 06:21:39;;;;;;;24.02;14.30;;;;;;;;;;5092006;28;20056;-62
2022/01/13 06:24:05;;;;;;;25.52;15.07;;;;;;;;;;5091772;28;20031;-72
2022/01/13 06:26:31;;;;;;;21.98;14.57;;;;;;;;;;5091727;28;20051;-67
2022/01/13 06:28:57;;;;;;;26.45;16.45;;;;;;;;;;5090980;28;20032;-71
2022/01/13 06:31:23;;;;;;;20.77;13.60;;;;;;;;;;5091555;28;20028;-62
2022/01/13 06:33:49;;;;;;;23.40;15.10;;;;;;;;;;5074500;28;20058;-59
2022/01/13 06:36:15;;;;;;;23.25;15.40;;;;;;;;;;5071401;28;20031;-62
2022/01/13 06:38:42;;;;;;;23.20;14.50;;;;;;;;;;5071493;28;20412;-70
2022/01/13 06:41:08;;;;;;;25.92;15.73;;;;;;;;;;5071746;28;20370;-60
2022/01/13 06:43:35;;;;;;;23.77;14.35;;;;;;;;;;5071216;28;20378;-68
2022/01/13 06:46:01;;;;;;;25.23;15.20;;;;;;;;;;5077400;28;20040;-71
2022/01/13 06:48:27;;;;;;;22.67;15.13;;;;;;;;;;5090061;28;20095;-67
2022/01/13 06:50:53;;;;;;;23.08;14.40;;;;;;;;;;5091390;28;20035;-68
2022/01/13 06:53:21;;;;;;;24.25;15.18;;;;;;;;;;5090022;28;20027;-76
2022/01/13 06:55:48;;;;;;;25.85;16.13;;;;;;;;;;5091453;28;20476;-63
2022/01/13 06:58:14;;;;;;;22.58;13.98;;;;;;;;;;5091404;28;20019;-60
2022/01/13 07:00:40;;;;;;;26.75;16.05;;;;;;;;;;5091170;28;20032;-67
2022/01/13 07:03:06;;;;;;;23.30;13.30;;;;;;;;;;5091345;28;20537;-71
2022/01/13 07:05:32;;;;;;;27.58;16.10;;;;;;;;;;5089940;28;20043;-71
2022/01/13 07:07:58;;;;;;;23.35;14.15;;;;;;;;;;5091200;28;20016;-59
2022/01/13 07:10:24;;;;;;;22.60;13.73;;;;;;;;;;5091165;28;20054;-69
2022/01/13 07:12:50;;;;;;;26.42;14.90;;;;;;;;;;5091307;28;20059;-61
2022/01/13 07:15:17;;;;;;;23.73;15.60;;;;;;;;;;5091238;28;20024;-65
2022/01/13 07:17:43;;;;;;;22.52;14.27;;;;;;;;;;5091191;28;20024;-71
2022/01/13 07:20:10;;;;;;;25.58;14.93;;;;;;;;;;5091458;28;20119;-67
2022/01/13 07:22:39;;;;;;;25.25;14.63;;;;;;;;;;5095476;28;20555;-76
2022/01/13 07:25:09;;;;;;;24.83;15.65;;;;;;;;;;5095206;28;20054;-60
2022/01/13 07:27:35;;;;;;;24.77;14.40;;;;;;;;;;5094920;28;20020;-59
2022/01/13 07:30:01;;;;;;;29.58;16.13;;;;;;;;;;5095137;28;20031;-62
2022/01/13 07:32:27;;;;;;;27.88;15.82;;;;;;;;;;5089523;28;20052;-66
2022/01/13 07:34:53;;;;;;;24.77;14.90;;;;;;;;;;5074849;28;20035;-63
2022/01/13 07:37:24;;;;;;;27.20;16.67;;;;;;;;;;5074576;28;20031;-62
2022/01/13 07:39:50;;;;;;;27.23;15.80;;;;;;;;;;5074593;28;20036;-64
2022/01/13 07:42:16;;;;;;;25.67;15.57;;;;;;;;;;5074428;28;20021;-63
2022/01/13 07:44:43;;;;;;;26.42;16.23;;;;;;;;;;5090218;28;20028;-71
2022/01/13 07:47:09;;;;;;;27.35;16.00;;;;;;;;;;5074605;28;20027;-64
2022/01/13 07:49:35;;;;;;;27.40;15.75;;;;;;;;;;5074671;28;20028;-59
2022/01/13 07:52:02;;;;;;;27.70;16.33;;;;;;;;;;5074640;28;20070;-66
2022/01/13 07:54:30;;;;;;;26.75;16.23;;;;;;;;;;5074534;28;20021;-72
2022/01/13 07:56:56;;;;;;;26.70;15.23;;;;;;;;;;5074371;28;20093;-59
2022/01/13 07:59:27;;;;;;;27.10;17.13;;;;;;;;;;5089924;28;20112;-71
2022/01/13 08:01:54;;;;;;;28.17;15.63;;;;;;;;;;5074480;28;20016;-63
2022/01/13 08:04:21;;;;;;;25.90;15.90;;;;;;;;;;5083990;28;20126;-73
2022/01/13 08:06:47;;;;;;;31.90;17.92;;;;;;;;;;5094272;28;20020;-63
2022/01/13 08:09:13;;;;;;;32.72;17.15;;;;;;;;;;5094103;28;20103;-64
2022/01/13 08:11:39;;;;;;;27.13;14.48;;;;;;;;;;5094273;28;20028;-65
2022/01/13 08:14:05;;;;;;;32.30;17.23;;;;;;;;;;5094294;28;20027;-62
2022/01/13 08:16:36;;;;;;;26.50;17.17;;;;;;;;;;5094451;28;20024;-60
2022/01/13 08:21:47;;;;;;;31.08;16.60;;;;;;;;;;5094405;28;20043;-59
2022/01/13 08:24:13;;;;;;;33.05;17.52;;;;;;;;;;5091564;28;20012;-69
2022/01/13 08:26:39;;;;;;;30.45;17.23;;;;;;;;;;5094033;28;20100;-74
2022/01/13 08:29:05;;;;;;;29.60;16.77;;;;;;;;;;5094161;28;20496;-80
2022/01/13 08:31:31;;;;;;;33.03;18.90;;;;;;;;;;5094161;28;20091;-59
2022/01/13 08:33:58;;;;;;;33.55;19.05;;;;;;;;;;5079499;28;20024;-65
2022/01/13 08:36:24;;;;;;;26.63;15.52;;;;;;;;;;5093977;28;20099;-71
2022/01/13 08:38:50;;;;;;;25.98;15.85;;;;;;;;;;5079086;28;20063;-66
2022/01/13 08:41:16;;;;;;;31.85;18.30;;;;;;;;;;5075267;28;20021;-65
2022/01/13 08:43:42;;;;;;;28.73;17.48;;;;;;;;;;5093590;28;20050;-61
2022/01/13 08:46:09;;;;;;;29.27;16.98;;;;;;;;;;5093830;28;20027;-64
2022/01/13 08:48:35;;;;;;;28.30;17.58;;;;;;;;;;5093656;28;20042;-69
2022/01/13 08:51:02;;;;;;;29.30;18.10;;;;;;;;;;5093492;28;20016;-62
2022/01/13 08:53:28;;;;;;;24.50;15.68;;;;;;;;;;5093464;28;20047;-62
2022/01/13 08:55:55;;;;;;;33.13;17.65;;;;;;;;;;5093407;28;20031;-62
2022/01/13 08:58:24;;;;;;;26.45;15.70;;;;;;;;;;5093635;28;20072;-61
2022/01/13 09:00:50;;;;;;;28.65;17.55;;;;;;;;;;5093518;28;20634;-66
2022/01/13 09:03:16;;;;;;;27.13;16.40;;;;;;;;;;5093483;28;20103;-65
2022/01/13 09:05:44;;;;;;;25.15;15.10;;;;;;;;;;5093376;28;20016;-63
2022/01/13 09:08:11;;;;;;;28.92;17.80;;;;;;;;;;5093434;28;20096;-60
2022/01/13 09:10:40;;;;;;;23.70;14.93;;;;;;;;;;5093396;28;20109;-60
2022/01/13 09:13:07;;;;;;;25.50;15.93;;;;;;;;;;5093273;28;20032;-64
2022/01/13 09:15:39;;;;;;;30.67;16.73;;;;;;;;;;5093309;28;20024;-61
2022/01/13 09:18:17;;;;;;;26.00;14.70;;;;;;;;;;5093074;28;20448;-64
2022/01/13 09:20:44;;;;;;;25.17;15.40;;;;;;;;;;5093005;28;20039;-69
2022/01/13 09:23:10;;;;;;;25.60;14.88;;;;;;;;;;5092929;28;20108;-68
2022/01/13 09:25:36;;;;;;;22.05;13.00;;;;;;;;;;5092877;28;20127;-68
2022/01/13 09:28:04;;;;;;;24.13;14.25;;;;;;;;;;5093011;28;20044;-63
2022/01/13 09:30:30;;;;;;;21.73;12.57;;;;;;;;;;5092846;28;20060;-67
2022/01/13 09:32:56;;;;;;;22.38;13.10;;;;;;;;;;5083150;28;20061;-61
2022/01/13 09:35:22;;;;;;;23.25;14.82;;;;;;;;;;5072561;28;20025;-64
2022/01/13 09:37:49;;;;;;;21.42;13.18;;;;;;;;;;5072444;28;20103;-65
2022/01/13 09:40:15;;;;;;;22.05;14.13;;;;;;;;;;5072455;28;20062;-66
2022/01/13 09:42:42;;;;;;;21.15;13.20;;;;;;;;;;5072591;28;20020;-60
2022/01/13 09:45:08;;;;;;;19.17;12.18;;;;;;;;;;5071291;28;20024;-60
2022/01/13 09:47:35;;;;;;;21.58;12.82;;;;;;;;;;5072314;28;20012;-65
2022/01/13 09:50:01;;;;;;;20.35;12.70;;;;;;;;;;5072406;28;20504;-68
2022/01/13 09:52:28;;;;;;;17.95;11.15;;;;;;;;;;5072267;28;20028;-66
2022/01/13 09:54:55;;;;;;;16.65;10.40;;;;;;;;;;5070938;28;20021;-61
2022/01/13 09:57:21;;;;;;;20.30;12.25;;;;;;;;;;5072097;28;20055;-66
2022/01/13 09:59:48;;;;;;;17.58;11.05;;;;;;;;;;5071856;28;20079;-62
2022/01/13 10:02:14;;;;;;;15.82;10.30;;;;;;;;;;5072092;28;20039;-60
2022/01/13 10:04:46;;;;;;;18.65;11.23;;;;;;;;;;5072076;28;20024;-68
2022/01/13 10:07:13;;;;;;;17.17;10.10;;;;;;;;;;5071984;28;20023;-66
2022/01/13 10:09:53;;;;;;;17.92;10.32;;;;;;;;;;5072059;28;20107;-65
2022/01/13 10:12:26;;;;;;;15.00;10.20;;;;;;;;;;5070339;28;20083;-65
2022/01/13 10:17:47;;;;;;;14.05;9.10;;;;;;;;;;5068684;28;20449;-62
2022/01/13 10:20:14;;;;;;;13.73;8.55;;;;;;;;;;5068831;28;20108;-67
2022/01/13 10:22:40;;;;;;;15.65;9.93;;;;;;;;;;5068492;28;20024;-69
2022/01/13 10:25:08;;;;;;;14.60;8.35;;;;;;;;;;5068661;28;20063;-69
2022/01/13 10:27:35;;;;;;;14.48;8.80;;;;;;;;;;5068508;28;20035;-64
2022/01/13 10:30:26;;;;;;;13.65;7.57;;;;;;;;;;5068439;28;20096;-63
2022/01/13 10:32:53;;;;;;;14.13;8.45;;;;;;;;;;5058254;28;20247;-62
2022/01/13 10:35:20;;;;;;;12.48;8.10;;;;;;;;;;5047951;28;20040;-62
2022/01/13 10:37:48;;;;;;;19.00;9.63;;;;;;;;;;5048533;28;20037;-63
2022/01/13 10:40:16;;;;;;;18.42;8.98;;;;;;;;;;5068047;28;20099;-63
2022/01/13 10:45:19;;;;;;;16.13;7.93;;;;;;;;;;5068056;28;20064;-65
2022/01/13 10:47:51;;;;;;;16.10;8.45;;;;;;;;;;5067761;28;20025;-64
2022/01/13 10:50:17;;;;;;;14.73;9.43;;;;;;;;;;5067964;28;20025;-64
2022/01/13 10:52:43;;;;;;;13.40;7.78;;;;;;;;;;5068327;28;20509;-66
2022/01/13 10:55:09;;;;;;;13.15;7.45;;;;;;;;;;5067844;28;20032;-65
2022/01/13 10:57:37;;;;;;;15.57;8.23;;;;;;;;;;5067786;28;20029;-65
2022/01/13 11:00:18;;;;;;;13.50;7.90;;;;;;;;;;5068004;28;20565;-65
2022/01/13 11:02:47;;;;;;;13.68;8.52;;;;;;;;;;5067705;28;20028;-65
2022/01/13 11:05:13;;;;;;;14.73;7.75;;;;;;;;;;5067557;28;20096;-65
2022/01/13 11:07:43;;;;;;;12.02;7.38;;;;;;;;;;5067755;28;20036;-68
2022/01/13 11:10:09;;;;;;;15.02;7.35;;;;;;;;;;5067012;28;20020;-65
2022/01/13 11:12:39;;;;;;;17.40;7.85;;;;;;;;;;5067633;28;20506;-68
2022/01/13 11:15:07;;;;;;;19.67;8.15;;;;;;;;;;5065173;28;20021;-61
2022/01/13 11:17:38;;;;;;;16.17;7.47;;;;;;;;;;5065433;28;20044;-63
2022/01/13 11:20:08;;;;;;;17.08;7.45;;;;;;;;;;5066142;28;20107;-60
2022/01/13 11:22:36;;;;;;;17.52;8.05;;;;;;;;;;5067024;28;20070;-61
2022/01/13 11:25:06;;;;;;;16.85;7.55;;;;;;;;;;5067166;28;20017;-61
2022/01/13 11:27:33;;;;;;;16.85;7.78;;;;;;;;;;5061784;28;20094;-61
2022/01/13 11:29:59;;;;;;;17.83;7.65;;;;;;;;;;5053922;28;20117;-61
2022/01/13 11:32:26;;;;;;;18.52;7.57;;;;;;;;;;5048516;28;20024;-61
2022/01/13 11:34:52;;;;;;;14.55;7.60;;;;;;;;;;5033893;28;20026;-61
2022/01/13 11:37:19;;;;;;;16.27;7.03;;;;;;;;;;5033551;28;20041;-61
2022/01/13 11:39:46;;;;;;;19.75;8.20;;;;;;;;;;5033583;28;20049;-61
2022/01/13 11:42:13;;;;;;;16.13;7.10;;;;;;;;;;5034167;28;20030;-61
2022/01/13 11:44:40;;;;;;;14.45;7.40;;;;;;;;;;5033801;28;20021;-61
2022/01/13 11:47:19;;;;;;;13.45;6.10;;;;;;;;;;5049842;28;20024;-61
2022/01/13 11:50:04;;;;;;;14.60;7.07;;;;;;;;;;5053552;28;20036;-61
2022/01/13 11:52:43;;;;;;;23.98;7.68;;;;;;;;;;5043557;28;20806;-62
2022/01/13 11:55:21;;;;;;;15.40;7.38;;;;;;;;;;5049545;28;20117;-63
2022/01/13 11:57:48;;;;;;;16.90;8.25;;;;;;;;;;5048360;28;20116;-66
2022/01/13 12:00:17;;;;;;;13.82;7.65;;;;;;;;;;5037686;28;20028;-65
2022/01/13 12:02:44;;;;;;;15.65;7.53;;;;;;;;;;5043325;28;20028;-64
2022/01/13 12:05:17;;;;;;;12.80;7.20;;;;;;;;;;5038881;28;20111;-68
2022/01/13 12:07:53;;;;;;;11.38;6.47;;;;;;;;;;5033982;28;20022;-62
2022/01/13 12:10:22;;;;;;;15.63;7.00;;;;;;;;;;5033101;28;20377;-66
2022/01/13 12:12:48;;;;;;;18.00;6.90;;;;;;;;;;5033214;28;20481;-62
2022/01/13 12:15:21;;;;;;;13.95;7.18;;;;;;;;;;5032866;28;20117;-62
2022/01/13 12:17:48;;;;;;;14.65;6.93;;;;;;;;;;5033098;28;20126;-61
2022/01/13 12:20:21;;;;;;;12.10;6.90;;;;;;;;;;5031730;28;20350;-63
2022/01/13 12:22:57;;;;;;;10.30;6.38;;;;;;;;;;5039231;28;20025;-61
2022/01/13 12:25:31;;;;;;;15.95;7.40;;;;;;;;;;5032865;28;20030;-61
2022/01/13 12:27:58;;;;;;;12.00;6.30;;;;;;;;;;5032768;28;20022;-62
2022/01/13 12:30:29;;;;;;;10.50;6.18;;;;;;;;;;5037500;28;20163;-64
2022/01/13 12:32:59;;;;;;;13.60;6.72;;;;;;;;;;5041763;28;20025;-62
2022/01/13 12:35:34;;;;;;;13.05;6.68;;;;;;;;;;5038894;28;20116;-61
2022/01/13 12:38:03;;;;;;;13.25;7.10;;;;;;;;;;5032810;28;20392;-62
2022/01/13 12:40:52;;;;;;;15.27;5.65;;;;;;;;;;5030352;28;20179;-67
2022/01/13 12:46:10;;;;;;;14.93;6.63;;;;;;;;;;5039464;28;20029;-65
2022/01/13 12:48:37;;;;;;;10.75;6.05;;;;;;;;;;5032381;28;20056;-67
2022/01/13 12:51:03;;;;;;;16.50;6.97;;;;;;;;;;5036607;28;20158;-64
2022/01/13 12:53:37;;;;;;;11.13;6.57;;;;;;;;;;5032868;28;20029;-67
2022/01/13 12:56:05;;;;;;;11.77;6.93;;;;;;;;;;5031871;28;20127;-69
2022/01/13 12:58:34;;;;;;;15.55;6.70;;;;;;;;;;5032348;28;20108;-68
2022/01/13 13:01:04;;;;;;;13.38;7.07;;;;;;;;;;5030546;28;20022;-63
2022/01/13 13:03:31;;;;;;;14.73;8.73;;;;;;;;;;5037557;28;20044;-62
2022/01/13 13:05:57;;;;;;;12.38;7.20;;;;;;;;;;5037146;28;20105;-66
2022/01/13 13:08:24;;;;;;;17.35;8.15;;;;;;;;;;5039712;28;20024;-67
2022/01/13 13:10:53;;;;;;;14.15;7.90;;;;;;;;;;5036925;28;20026;-69
2022/01/13 13:13:19;;;;;;;17.52;7.43;;;;;;;;;;5034299;28;20060;-68
2022/01/13 13:16:11;;;;;;;15.25;8.00;;;;;;;;;;5061565;28;20044;-62
2022/01/13 13:18:38;;;;;;;15.88;8.25;;;;;;;;;;5044428;28;20040;-67
2022/01/13 13:21:05;;;;;;;15.25;7.25;;;;;;;;;;5051972;28;20017;-66
2022/01/13 13:23:32;;;;;;;15.48;7.40;;;;;;;;;;5064340;28;20479;-62
2022/01/13 13:26:10;;;;;;;12.60;7.13;;;;;;;;;;5052687;28;20024;-62
2022/01/13 13:28:46;;;;;;;14.77;6.95;;;;;;;;;;5059148;28;21199;-66
2022/01/13 13:31:18;;;;;;;13.82;6.50;;;;;;;;;;5056712;28;20498;-70
2022/01/13 13:33:45;;;;;;;13.15;6.45;;;;;;;;;;5059177;28;20039;-64
2022/01/13 13:36:16;;;;;;;12.80;6.75;;;;;;;;;;5049924;28;20043;-69
2022/01/13 13:38:53;;;;;;;14.10;6.43;;;;;;;;;;5048305;28;20155;-70
2022/01/13 13:41:20;;;;;;;13.52;6.80;;;;;;;;;;5051564;28;20060;-69
2022/01/13 13:43:46;;;;;;;13.25;6.75;;;;;;;;;;5052312;28;20030;-69
2022/01/13 13:46:13;;;;;;;15.63;6.00;;;;;;;;;;5053136;28;20027;-61
2022/01/13 13:48:44;;;;;;;9.45;5.45;;;;;;;;;;5049179;28;20071;-68
2022/01/13 13:51:13;;;;;;;15.27;6.60;;;;;;;;;;5051794;28;20056;-70
2022/01/13 13:53:39;;;;;;;9.70;5.97;;;;;;;;;;5049799;28;21300;-65
2022/01/13 13:56:05;;;;;;;16.65;7.25;;;;;;;;;;5052957;28;20061;-67
2022/01/13 13:58:31;;;;;;;14.35;6.90;;;;;;;;;;5051427;28;20052;-65
2022/01/13 14:01:07;;;;;;;12.93;6.68;;;;;;;;;;5064080;28;20039;-68
2022/01/13 14:03:46;;;;;;;11.30;6.72;;;;;;;;;;5054168;28;20086;-67
2022/01/13 14:06:32;;;;;;;13.27;6.97;;;;;;;;;;5055502;28;20017;-65
2022/01/13 14:08:58;;;;;;;13.63;6.10;;;;;;;;;;5057523;28;20019;-63
2022/01/13 14:11:24;;;;;;;11.35;5.95;;;;;;;;;;5057652;28;20024;-65
2022/01/13 14:14:08;;;;;;;13.73;6.50;;;;;;;;;;5051435;28;20036;-70
2022/01/13 14:16:35;;;;;;;10.45;6.20;;;;;;;;;;5048964;28;20415;-67
2022/01/13 14:19:12;;;;;;;12.38;6.22;;;;;;;;;;5055876;28;20056;-64
2022/01/13 14:21:54;;;;;;;11.07;6.32;;;;;;;;;;5053591;28;20175;-63
2022/01/13 14:24:50;;;;;;;13.05;5.53;;;;;;;;;;5055559;28;20022;-68
2022/01/13 14:27:16;;;;;;;13.20;6.57;;;;;;;;;;5037765;28;20065;-62
2022/01/13 14:29:42;;;;;;;12.63;6.85;;;;;;;;;;5049679;28;20017;-63
2022/01/13 14:32:14;;;;;;;10.75;5.55;;;;;;;;;;5049377;28;20028;-68
2022/01/13 14:34:44;;;;;;;12.70;6.40;;;;;;;;;;5045987;28;20472;-65
2022/01/13 14:37:11;;;;;;;12.43;6.43;;;;;;;;;;5048541;28;20068;-63
2022/01/13 14:39:37;;;;;;;12.32;6.22;;;;;;;;;;5053849;28;20036;-63
2022/01/13 14:42:03;;;;;;;13.00;6.47;;;;;;;;;;5053303;28;20432;-68
2022/01/13 14:44:29;;;;;;;15.20;6.78;;;;;;;;;;5051670;28;20037;-70
2022/01/13 14:47:06;;;;;;;13.50;5.68;;;;;;;;;;5049336;28;20071;-66
2022/01/13 14:49:35;;;;;;;13.40;6.00;;;;;;;;;;5044288;28;20021;-70
2022/01/13 14:52:03;;;;;;;10.40;5.90;;;;;;;;;;5051285;28;20029;-64
2022/01/13 14:54:29;;;;;;;10.52;5.68;;;;;;;;;;5048388;28;20029;-68
2022/01/13 14:56:55;;;;;;;9.18;5.13;;;;;;;;;;5053239;28;20040;-62